Terminal Aerodrome Forecast
Issued by NWS

Home | Current Version | Previous Version | Graphics & Text | Print | Product List | Glossary On
Versions: 1 2 3 4 5 6 7 8 9 10 11 12 13 14 15 16 17 18
000
FTUS43 KUNR 071120
TAFGCC
TAF
KGCC 071120Z 0712/0812 17012G22KT P6SM SCT100
      TEMPO 0712/0716 4SM BR
     FM071900 19010KT P6SM BKN050
      TEMPO 0721/0801 P6SM -TSRA BKN050CB=

USA.gov is the U.S. government's official web portal to all federal, state and local government web resources and services.